Map

Track Data

SID SEASON NUMBER BASIN SUBBASIN NAME ISO_TIME NATURE LAT LON WMO_WIND WMO_PRES WMO_AGENCY TRACK_TYPE DIST2LAND LANDFALL IFLAG USA_AGENCY USA_ATCF_ID USA_LAT USA_LON USA_RECORD USA_STATUS USA_WIND USA_PRES USA_SSHS USA_R34_NE USA_R34_SE USA_R34_SW USA_R34_NW USA_R50_NE USA_R50_SE USA_R50_SW USA_R50_NW USA_R64_NE USA_R64_SE USA_R64_SW USA_R64_NW USA_POCI USA_ROCI USA_RMW USA_EYE TOKYO_LAT TOKYO_LON TOKYO_GRADE TOKYO_WIND TOKYO_PRES TOKYO_R50_DIR TOKYO_R50_LONG TOKYO_R50_SHORT TOKYO_R30_DIR TOKYO_R30_LONG TOKYO_R30_SHORT TOKYO_LAND CMA_LAT CMA_LON CMA_CAT CMA_WIND CMA_PRES HKO_LAT HKO_LON HKO_CAT HKO_WIND HKO_PRES NEWDELHI_LAT NEWDELHI_LON NEWDELHI_GRADE NEWDELHI_WIND NEWDELHI_PRES NEWDELHI_CI NEWDELHI_DP NEWDELHI_POCI REUNION_LAT REUNION_LON REUNION_TYPE REUNION_WIND REUNION_PRES REUNION_TNUM REUNION_CI REUNION_RMW REUNION_R34_NE REUNION_R34_SE REUNION_R34_SW REUNION_R34_NW REUNION_R50_NE REUNION_R50_SE REUNION_R50_SW REUNION_R50_NW REUNION_R64_NE REUNION_R64_SE REUNION_R64_SW REUNION_R64_NW BOM_LAT BOM_LON BOM_TYPE BOM_WIND BOM_PRES BOM_TNUM BOM_CI BOM_RMW BOM_R34_NE BOM_R34_SE BOM_R34_SW BOM_R34_NW BOM_R50_NE BOM_R50_SE BOM_R50_SW BOM_R50_NW BOM_R64_NE BOM_R64_SE BOM_R64_SW BOM_R64_NW BOM_ROCI BOM_POCI BOM_EYE BOM_POS_METHOD BOM_PRES_METHOD NADI_LAT NADI_LON NADI_CAT NADI_WIND NADI_PRES WELLINGTON_LAT WELLINGTON_LON WELLINGTON_WIND WELLINGTON_PRES DS824_LAT DS824_LON DS824_STAGE DS824_WIND DS824_PRES TD9636_LAT TD9636_LON TD9636_STAGE TD9636_WIND TD9636_PRES TD9635_LAT TD9635_LON TD9635_WIND TD9635_PRES TD9635_ROCI NEUMANN_LAT NEUMANN_LON NEUMANN_CLASS NEUMANN_WIND NEUMANN_PRES MLC_LAT MLC_LON MLC_CLASS MLC_WIND MLC_PRES USA_GUST BOM_GUST BOM_GUST_PER REUNION_GUST REUNION_GUST_PER USA_SEAHGT USA_SEARAD_NE USA_SEARAD_SE USA_SEARAD_SW USA_SEARAD_NW STORM_SPEED STORM_DIR
1970294N13247 1970 136 EP MM ROSALIE 1970-10-21 00:00:00 TS 13.3000 -113.300 25 hurdat_epa main 1113 1104 O________OO___ hurdat_epa EP171970 13.3000 -113.300 TD 25 -1 13.3000 -113.300 TC 25 13.3000 -113.300 2 13 309
1970294N13247 1970 136 EP MM ROSALIE 1970-10-21 03:00:00 TS 13.6982 -113.807 main 1104 1083 P________PP___ EP171970 13.6826 -113.797 TD 25 -1 13.6826 -113.797 TC 25 13.7606 -113.845 2 13 310
1970294N13247 1970 136 EP MM ROSALIE 1970-10-21 06:00:00 TS 14.1213 -114.313 25 hurdat_epa main 1083 1056 O________OP___ hurdat_epa EP171970 14.1000 -114.300 TD 25 -1 14.1000 -114.300 TC 25 14.2065 -114.363 2 13 312
1970294N13247 1970 136 EP MM ROSALIE 1970-10-21 09:00:00 TS 14.5768 -114.801 main 1056 1038 P________PP___ EP171970 14.5650 -114.795 TD 35 0 14.5650 -114.795 TC 35 14.6240 -114.824 2 12 316
1970294N13247 1970 136 EP MM ROSALIE 1970-10-21 12:00:00 TS 15.0000 -115.200 45 hurdat_epa main 1038 1021 O________OO___ hurdat_epa EP171970 15.0000 -115.200 TS 45 0 15.0000 -115.200 TC 45 15.0000 -115.200 2 10 320
1970294N13247 1970 136 EP MM ROSALIE 1970-10-21 15:00:00 TS 15.3233 -115.450 main 1027 1005 P________PP___ EP171970 15.3223 -115.445 TS 45 0 15.3223 -115.445 TC 45 15.3272 -115.470 2 7 327
1970294N13247 1970 136 EP MM ROSALIE 1970-10-21 18:00:00 TS 15.6044 -115.611 45 hurdat_epa main 1005 984 O________OP___ hurdat_epa EP171970 15.6000 -115.600 TS 45 0 15.6000 -115.600 TC 45 15.6218 -115.656 2 7 332
1970294N13247 1970 136 EP MM ROSALIE 1970-10-21 21:00:00 TS 15.8951 -115.764 main 991 971 P________PP___ EP171970 15.8925 -115.758 TS 45 0 15.8925 -115.758 TC 45 15.9055 -115.789 2 7 335
1970294N13247 1970 136 EP MM ROSALIE 1970-10-22 00:00:00 TS 16.2000 -115.900 45 hurdat_epa main 971 952 O________OO___ hurdat_epa EP171970 16.2000 -115.900 TS 45 0 16.2000 -115.900 TC 45 16.2000 -115.900 2 7 337
1970294N13247 1970 136 EP MM ROSALIE 1970-10-22 03:00:00 TS 16.5411 -116.052 main 958 932 P________PP___ EP171970 16.5425 -116.057 TS 45 0 16.5425 -116.057 TC 45 16.5355 -116.032 2 8 338
1970294N13247 1970 136 EP MM ROSALIE 1970-10-22 06:00:00 TS 16.8970 -116.190 45 hurdat_epa main 932 915 O________OP___ hurdat_epa EP171970 16.9000 -116.200 TS 45 0 16.9000 -116.200 TC 45 16.8849 -116.150 2 7 342
1970294N13247 1970 136 EP MM ROSALIE 1970-10-22 09:00:00 TS 17.2483 -116.294 main 915 892 P________PP___ EP171970 17.2500 -116.300 TS 45 0 17.2500 -116.300 TC 45 17.2418 -116.269 2 7 344
1970294N13247 1970 136 EP MM ROSALIE 1970-10-22 12:00:00 TS 17.6000 -116.400 45 hurdat_epa main 892 878 O________OO___ hurdat_epa EP171970 17.6000 -116.400 TS 45 0 17.6000 -116.400 TC 45 17.6000 -116.400 2 7 342
1970294N13247 1970 136 EP MM ROSALIE 1970-10-22 15:00:00 TS 17.9548 -116.534 main 870 858 P________PP___ EP171970 17.9500 -116.535 TS 45 0 17.9500 -116.535 TC 45 17.9741 -116.528 2 8 338
1970294N13247 1970 136 EP MM ROSALIE 1970-10-22 18:00:00 TS 18.3089 -116.695 45 1006 hurdat_epa main 858 833 O________OP___ hurdat_epa EP171970 18.3000 -116.700 TS 45 1006 0 18.3000 -116.700 TC 45 1006 18.3445 -116.675 2 8 336
1970294N13247 1970 136 EP MM ROSALIE 1970-10-22 21:00:00 TS 18.6705 -116.868 main 833 819 P________PP___ EP171970 18.6649 -116.870 TS 45 0 18.6649 -116.870 TC 45 18.6927 -116.860 2 8 331
1970294N13247 1970 136 EP MM ROSALIE 1970-10-23 00:00:00 TS 19.0000 -117.100 45 hurdat_epa main 819 810 O________OO___ hurdat_epa EP171970 19.0000 -117.100 TS 45 0 19.0000 -117.100 TC 45 19.0000 -117.100 2 8 319
1970294N13247 1970 136 EP MM ROSALIE 1970-10-23 03:00:00 TS 19.2746 -117.418 main 813 812 P________PP___ EP171970 19.2800 -117.420 TS 45 0 19.2800 -117.420 TC 45 19.2531 -117.409 2 8 307
1970294N13247 1970 136 EP MM ROSALIE 1970-10-23 06:00:00 TS 19.4922 -117.795 45 hurdat_epa main 825 825 O________OP___ hurdat_epa EP171970 19.5000 -117.800 TS 45 0 19.5000 -117.800 TC 45 19.4611 -117.774 2 8 298
1970294N13247 1970 136 EP MM ROSALIE 1970-10-23 09:00:00 TS 19.6598 -118.193 main 840 840 P________PP___ EP171970 19.6652 -118.197 TS 35 0 19.6652 -118.197 TC 35 19.6385 -118.178 2 8 292
1970294N13247 1970 136 EP MM ROSALIE 1970-10-23 12:00:00 TS 19.8000 -118.600 25 hurdat_epa main 863 O________OO___ hurdat_epa EP171970 19.8000 -118.600 TD 25 -1 19.8000 -118.600 TC 25 19.8000 -118.600 6 8 290

About IBTrACS Database

This database is a web-friendly format of International Best Track Archive for Climate Stewardship (IBTrACS), a global best track data archive curated by NOAA dating back to 1842.

Updated: 2021-10-08